Terminal Aerodrome Forecast
Issued by NWS

Home | Current Version | Previous Version | Text Only | Print | Product List | Glossary On
Versions: 1 2 3 4 5 6 7 8 9 10 11 12 13 14 15 16 17 18 19
000
FTUS46 KLOX 231301 AAA
TAFSBP
TAF AMD
KSBP 231301Z 2313/2412 VRB02KT P6SM OVC005
     FM231600 VRB03KT P6SM OVC006
     FM231730 30006KT P6SM SCT008
     FM231900 31012KT P6SM SKC
     FM240400 31006KT P6SM OVC007
     FM240900 VRB03KT 4SM BR OVC004=

USA.gov is the U.S. government's official web portal to all federal, state and local government web resources and services.